createdAt,value
2023-03-21T00:02:01.221Z,6.68
2023-03-21T00:04:33.176Z,6.66
2023-03-21T00:07:04.914Z,6.62
2023-03-21T00:09:31.453Z,6.62
2023-03-21T00:12:01.704Z,6.60
2023-03-21T00:14:31.076Z,6.56
2023-03-21T00:16:57.742Z,6.55
2023-03-21T00:19:26.562Z,6.57
2023-03-21T00:22:09.766Z,6.58
2023-03-21T00:24:36.862Z,6.61
2023-03-21T00:27:26.874Z,6.57
2023-03-21T00:29:50.327Z,6.53
2023-03-21T00:32:17.411Z,6.50
2023-03-21T00:34:59.589Z,6.50
2023-03-21T00:37:28.366Z,6.44
2023-03-21T00:39:54.990Z,6.42
2023-03-21T00:42:21.585Z,6.43
2023-03-21T00:44:48.341Z,6.42
2023-03-21T00:47:14.838Z,6.38
2023-03-21T00:49:41.375Z,6.35
2023-03-21T00:52:17.080Z,6.31
2023-03-21T00:54:46.922Z,6.33
2023-03-21T00:57:13.387Z,6.30
2023-03-21T00:59:39.836Z,6.28
2023-03-21T01:02:07.402Z,6.24
2023-03-21T01:04:34.427Z,6.22
2023-03-21T01:07:00.916Z,6.23
2023-03-21T01:09:27.390Z,6.24
2023-03-21T01:11:54.016Z,6.23
2023-03-21T01:14:23.387Z,6.20
2023-03-21T01:16:53.728Z,6.18
2023-03-21T01:19:27.487Z,6.17
2023-03-21T01:21:57.738Z,6.17
2023-03-21T01:24:24.186Z,6.17
2023-03-21T01:26:50.747Z,6.19
2023-03-21T01:29:17.284Z,6.20
2023-03-21T01:31:43.906Z,6.22
2023-03-21T01:34:10.474Z,6.23
2023-03-21T01:36:37.052Z,6.28
2023-03-21T01:39:03.781Z,6.27
2023-03-21T01:41:47.304Z,6.27
2023-03-21T01:44:17.957Z,6.29
2023-03-21T01:46:57.093Z,6.33
2023-03-21T01:49:35.798Z,6.31
2023-03-21T01:52:13.030Z,6.31
2023-03-21T01:54:43.228Z,6.36
2023-03-21T01:57:12.032Z,6.39
2023-03-21T01:59:38.489Z,6.41
2023-03-21T02:02:07.369Z,6.46
2023-03-21T02:04:35.687Z,6.47
2023-03-21T02:07:07.562Z,6.45
2023-03-21T02:09:35.341Z,6.47
2023-03-21T02:12:02.181Z,6.48
2023-03-21T02:14:30.962Z,6.48
2023-03-21T02:17:03.663Z,6.48
2023-03-21T02:19:52.636Z,6.48
2023-03-21T02:22:32.574Z,6.50
2023-03-21T02:25:06.190Z,6.51
2023-03-21T02:28:01.302Z,6.50
2023-03-21T02:30:31.804Z,6.50
2023-03-21T02:33:19.073Z,6.51
2023-03-21T02:36:14.260Z,6.52
2023-03-21T02:38:47.471Z,6.55
2023-03-21T02:41:20.147Z,6.55
2023-03-21T02:43:56.520Z,6.54
2023-03-21T02:46:40.134Z,6.51
2023-03-21T02:49:12.879Z,6.47
2023-03-21T02:51:41.697Z,6.50
2023-03-21T02:54:41.847Z,6.51
2023-03-21T02:56:59.281Z,6.50
2023-03-21T02:59:27.289Z,6.48
2023-03-21T03:01:54.783Z,6.51
2023-03-21T03:04:27.420Z,6.54
2023-03-21T03:06:53.981Z,6.56
2023-03-21T03:09:39.347Z,6.60
2023-03-21T03:12:12.409Z,6.60
2023-03-21T03:15:02.358Z,6.59
2023-03-21T03:17:29.768Z,6.59
2023-03-21T03:19:57.177Z,6.62
2023-03-21T03:22:26.611Z,6.61
2023-03-21T03:25:02.819Z,6.61
2023-03-21T03:27:35.335Z,6.63
2023-03-21T03:30:02.496Z,6.67
2023-03-21T03:32:31.465Z,6.70
2023-03-21T03:34:58.829Z,6.69
2023-03-21T03:37:27.129Z,6.65
2023-03-21T03:39:53.535Z,6.65
2023-03-21T03:42:31.820Z,6.64
2023-03-21T03:44:58.470Z,6.64
2023-03-21T03:47:44.694Z,6.66
2023-03-21T03:50:41.240Z,6.67
2023-03-21T03:53:18.640Z,6.69
2023-03-21T03:55:46.288Z,6.69
2023-03-21T03:58:22.116Z,6.70
2023-03-21T04:00:49.779Z,6.73
2023-03-21T04:03:16.283Z,6.75
2023-03-21T04:05:46.276Z,6.72
2023-03-21T04:08:13.943Z,6.72
2023-03-21T04:10:40.856Z,6.74
2023-03-21T04:13:07.473Z,6.75
2023-03-21T04:15:33.988Z,6.77
2023-03-21T04:18:00.483Z,6.75
2023-03-21T04:20:36.640Z,6.77
2023-03-21T04:23:04.007Z,6.77
2023-03-21T04:25:34.084Z,6.78
2023-03-21T04:28:00.925Z,6.81
2023-03-21T04:30:27.414Z,6.80
2023-03-21T04:32:57.049Z,6.81
2023-03-21T04:35:24.526Z,6.84
2023-03-21T04:37:51.368Z,6.82
2023-03-21T04:40:18.887Z,6.81
2023-03-21T04:42:46.520Z,6.83
2023-03-21T04:45:13.980Z,6.82
2023-03-21T04:47:41.683Z,6.82
2023-03-21T04:50:09.039Z,6.85
2023-03-21T04:52:35.540Z,6.85
2023-03-21T04:55:02.256Z,6.86
2023-03-21T04:57:28.728Z,6.88
2023-03-21T04:59:55.516Z,6.90
2023-03-21T05:02:22.056Z,6.93
2023-03-21T05:04:48.502Z,6.95
2023-03-21T05:07:14.920Z,6.94
2023-03-21T05:09:41.414Z,6.94
2023-03-21T05:12:07.877Z,6.89
2023-03-21T05:14:34.346Z,6.88
2023-03-21T05:17:05.430Z,6.89
2023-03-21T05:19:35.769Z,6.91
2023-03-21T05:22:04.630Z,6.94
2023-03-21T05:24:32.100Z,6.95
2023-03-21T05:27:02.524Z,6.98
2023-03-21T05:29:32.892Z,6.98
2023-03-21T05:32:00.035Z,6.90
2023-03-21T05:34:27.092Z,6.74
2023-03-21T05:36:53.662Z,6.76
2023-03-21T05:39:20.384Z,6.79
2023-03-21T05:41:46.864Z,6.80
2023-03-21T05:44:13.468Z,6.85
2023-03-21T05:46:39.950Z,6.91
2023-03-21T05:49:06.499Z,6.92
2023-03-21T05:51:33.007Z,6.93
2023-03-21T05:53:59.442Z,6.96
2023-03-21T05:56:25.929Z,6.98
2023-03-21T05:58:52.506Z,6.97
2023-03-21T06:01:19.241Z,7.00
2023-03-21T06:03:45.937Z,7.03
2023-03-21T06:06:12.446Z,7.04
2023-03-21T06:08:38.997Z,7.01
2023-03-21T06:11:07.014Z,6.97
2023-03-21T06:13:33.425Z,6.94
2023-03-21T06:15:59.960Z,6.87
2023-03-21T06:18:26.721Z,6.84
2023-03-21T06:20:54.438Z,6.89
2023-03-21T06:23:20.917Z,6.93
2023-03-21T06:25:48.018Z,6.93
2023-03-21T06:28:14.461Z,6.95
2023-03-21T06:30:40.982Z,7.02
2023-03-21T06:33:07.417Z,7.07
2023-03-21T06:35:33.859Z,7.10
2023-03-21T06:38:00.323Z,7.11
2023-03-21T06:40:26.795Z,7.12
2023-03-21T06:42:53.232Z,7.15
2023-03-21T06:45:19.920Z,7.11
2023-03-21T06:47:46.484Z,7.12
2023-03-21T06:50:13.155Z,7.09
2023-03-21T06:52:39.689Z,7.16
2023-03-21T06:55:06.371Z,7.25
2023-03-21T06:57:33.049Z,7.31
2023-03-21T06:59:59.498Z,7.28
2023-03-21T07:02:25.968Z,7.30
2023-03-21T07:04:52.567Z,7.32
2023-03-21T07:07:19.037Z,7.40
2023-03-21T07:09:45.508Z,7.46
2023-03-21T07:12:12.010Z,7.48
2023-03-21T07:14:38.440Z,7.46
2023-03-21T07:17:04.934Z,7.45
2023-03-21T07:19:31.498Z,7.51
2023-03-21T07:21:57.937Z,7.56
2023-03-21T07:24:24.394Z,7.61
2023-03-21T07:26:51.015Z,7.68
2023-03-21T07:29:17.697Z,7.74
2023-03-21T07:31:44.317Z,7.77
2023-03-21T07:34:10.808Z,7.78
2023-03-21T07:36:37.769Z,7.82
2023-03-21T07:39:04.862Z,7.86
2023-03-21T07:41:31.418Z,7.90
2023-03-21T07:43:57.980Z,7.94
2023-03-21T07:46:24.666Z,7.99
2023-03-21T07:48:51.400Z,8.04
2023-03-21T07:51:17.899Z,8.07
2023-03-21T07:53:48.500Z,8.11
2023-03-21T07:56:15.976Z,8.14
2023-03-21T07:58:42.573Z,8.21
2023-03-21T08:01:09.043Z,8.31
2023-03-21T08:03:35.548Z,8.35
2023-03-21T08:06:02.009Z,8.37
2023-03-21T08:08:28.522Z,8.42
2023-03-21T08:10:57.351Z,8.47
2023-03-21T08:13:23.910Z,8.53
2023-03-21T08:15:50.364Z,8.61
2023-03-21T08:18:16.853Z,8.70
2023-03-21T08:20:43.327Z,8.81
2023-03-21T08:23:09.833Z,8.88
2023-03-21T08:25:36.887Z,9.00
2023-03-21T08:28:03.891Z,9.03
2023-03-21T08:30:30.650Z,9.07
2023-03-21T08:33:00.900Z,9.16
2023-03-21T08:35:28.177Z,9.19
2023-03-21T08:37:54.607Z,9.23
2023-03-21T08:40:21.088Z,9.26
2023-03-21T08:42:47.700Z,9.34
2023-03-21T08:45:17.486Z,9.41
2023-03-21T08:47:44.086Z,9.49
2023-03-21T08:50:12.278Z,9.59
2023-03-21T08:52:38.731Z,9.70
2023-03-21T08:55:05.423Z,9.77
2023-03-21T08:57:31.908Z,9.86
2023-03-21T08:59:58.360Z,9.90
2023-03-21T09:02:24.967Z,9.94
2023-03-21T09:04:54.978Z,9.97
2023-03-21T09:07:22.213Z,10.00
2023-03-21T09:09:58.057Z,10.02
2023-03-21T09:12:29.746Z,10.06
2023-03-21T09:14:56.296Z,10.06
2023-03-21T09:17:22.886Z,10.06
2023-03-21T09:19:50.814Z,10.10
2023-03-21T09:22:21.451Z,10.12
2023-03-21T09:24:49.246Z,10.15
2023-03-21T09:27:18.153Z,10.18
2023-03-21T09:29:45.080Z,10.24
2023-03-21T09:32:12.252Z,10.29
2023-03-21T09:34:41.165Z,10.32
2023-03-21T09:37:13.376Z,10.22
2023-03-21T09:39:41.163Z,10.23
2023-03-21T09:42:08.435Z,10.29
2023-03-21T09:44:41.599Z,10.35
2023-03-21T09:47:14.048Z,10.37
2023-03-21T09:49:43.601Z,10.40
2023-03-21T09:52:13.228Z,10.42
2023-03-21T09:54:43.004Z,10.45
2023-03-21T09:57:15.597Z,10.51
2023-03-21T09:59:42.930Z,10.57
2023-03-21T10:02:22.824Z,10.61
2023-03-21T10:04:49.468Z,10.70
2023-03-21T10:07:18.187Z,10.75
2023-03-21T10:09:45.223Z,10.75
2023-03-21T10:12:30.482Z,10.71
2023-03-21T10:14:58.653Z,10.68
2023-03-21T10:17:40.925Z,10.63
2023-03-21T10:20:11.968Z,10.67
2023-03-21T10:22:38.710Z,10.72
2023-03-21T10:25:06.659Z,10.80
2023-03-21T10:27:34.205Z,10.90
2023-03-21T10:30:01.624Z,10.94
2023-03-21T10:32:28.322Z,11.05
2023-03-21T10:37:24.337Z,11.16
2023-03-21T10:39:52.254Z,11.25
2023-03-21T10:42:26.491Z,11.26
2023-03-21T10:44:54.220Z,11.25
2023-03-21T10:47:23.063Z,11.31
2023-03-21T10:50:06.949Z,11.36
2023-03-21T10:52:35.445Z,11.39
2023-03-21T10:55:07.144Z,11.43
2023-03-21T10:57:33.727Z,11.49
2023-03-21T11:00:01.610Z,11.62
2023-03-21T11:02:33.828Z,11.65
2023-03-21T11:05:08.319Z,11.73
2023-03-21T11:07:37.065Z,11.75
2023-03-21T11:10:17.166Z,11.75
2023-03-21T11:12:47.984Z,11.78
2023-03-21T11:15:26.310Z,11.76
2023-03-21T11:17:52.876Z,11.78
2023-03-21T11:20:19.767Z,11.75
2023-03-21T11:22:47.041Z,11.75
2023-03-21T11:25:25.866Z,11.73
2023-03-21T11:27:54.155Z,11.68
2023-03-21T11:30:22.263Z,11.69
2023-03-21T11:32:52.183Z,11.65
2023-03-21T11:35:21.704Z,11.61
2023-03-21T11:38:10.946Z,11.51
2023-03-21T11:40:39.609Z,11.48
2023-03-21T11:43:18.240Z,11.35
2023-03-21T11:46:20.528Z,11.24
2023-03-21T11:48:51.217Z,11.05
2023-03-21T11:51:36.127Z,10.86
2023-03-21T11:54:02.546Z,10.68
2023-03-21T11:56:38.419Z,10.72
2023-03-21T11:59:15.977Z,10.81
2023-03-21T12:01:49.579Z,10.89
2023-03-21T12:04:18.378Z,10.93
2023-03-21T12:06:52.316Z,10.91
2023-03-21T12:09:33.897Z,10.96
2023-03-21T12:12:24.516Z,11.04
2023-03-21T12:15:02.429Z,11.07
2023-03-21T12:17:53.141Z,11.11
2023-03-21T12:20:31.617Z,11.13
2023-03-21T12:23:01.034Z,11.13
2023-03-21T12:25:31.547Z,11.06
2023-03-21T12:28:09.421Z,11.01
2023-03-21T12:30:44.893Z,10.95
2023-03-21T12:33:20.364Z,10.96
2023-03-21T12:35:49.936Z,11.02
2023-03-21T12:38:17.368Z,11.11
2023-03-21T12:41:05.131Z,11.14
2023-03-21T12:43:51.154Z,11.13
2023-03-21T12:46:29.148Z,11.14
2023-03-21T12:48:59.162Z,11.24
2023-03-21T12:51:29.654Z,11.23
2023-03-21T12:53:59.325Z,11.12
2023-03-21T12:56:35.209Z,11.00
2023-03-21T12:59:10.845Z,10.98
2023-03-21T13:01:38.873Z,11.02
2023-03-21T13:04:17.327Z,11.05
2023-03-21T13:06:45.876Z,11.12
2023-03-21T13:09:37.378Z,11.04
2023-03-21T13:12:19.946Z,10.96
2023-03-21T13:14:54.798Z,10.83
2023-03-21T13:17:41.900Z,10.74
2023-03-21T13:20:08.331Z,10.72
2023-03-21T13:22:34.927Z,10.75
2023-03-21T13:25:05.934Z,10.70
2023-03-21T13:27:33.710Z,10.61
2023-03-21T13:30:06.665Z,10.57
2023-03-21T13:32:40.998Z,10.55
2023-03-21T13:35:16.804Z,10.54
2023-03-21T13:37:44.361Z,10.46
2023-03-21T13:40:24.249Z,10.49
2023-03-21T13:42:53.104Z,10.45
2023-03-21T13:45:24.903Z,10.44
2023-03-21T13:47:52.355Z,10.42
2023-03-21T13:50:18.866Z,10.44
2023-03-21T13:53:03.544Z,10.38
2023-03-21T13:55:41.476Z,10.37
2023-03-21T13:58:26.645Z,10.34
2023-03-21T14:01:16.795Z,10.40
2023-03-21T14:03:45.984Z,10.48
2023-03-21T14:06:12.975Z,10.53
2023-03-21T14:08:41.019Z,10.51
2023-03-21T14:11:10.253Z,10.49
2023-03-21T14:13:48.310Z,10.48
2023-03-21T14:16:18.471Z,10.45
2023-03-21T14:18:55.229Z,10.47
2023-03-21T14:21:24.889Z,10.43
2023-03-21T14:23:58.070Z,10.41
2023-03-21T14:26:25.864Z,10.41
2023-03-21T14:28:52.770Z,10.37
2023-03-21T14:31:19.726Z,10.42
2023-03-21T14:33:49.584Z,10.36
2023-03-21T14:36:20.870Z,10.22
2023-03-21T14:39:07.212Z,10.19
2023-03-21T14:41:34.924Z,10.18
2023-03-21T14:44:04.440Z,10.25
2023-03-21T14:46:30.919Z,10.41
2023-03-21T14:49:09.896Z,10.42
2023-03-21T14:51:36.354Z,10.47
2023-03-21T14:54:02.885Z,10.49
2023-03-21T14:56:29.368Z,10.47
2023-03-21T14:58:56.970Z,10.56
2023-03-21T15:01:32.275Z,10.67
2023-03-21T15:04:00.689Z,10.77
2023-03-21T15:06:27.515Z,10.78
2023-03-21T15:08:56.081Z,10.81
2023-03-21T15:11:29.538Z,10.82
2023-03-21T15:13:56.460Z,10.86
2023-03-21T15:16:23.404Z,10.93
2023-03-21T15:18:50.182Z,10.88
2023-03-21T15:21:19.446Z,10.75
2023-03-21T15:23:47.376Z,10.69
2023-03-21T15:26:18.840Z,10.67
2023-03-21T15:28:47.006Z,10.69
2023-03-21T15:31:18.899Z,10.64
2023-03-21T15:33:47.050Z,10.57
2023-03-21T15:36:18.988Z,10.44
2023-03-21T15:38:48.906Z,10.28
2023-03-21T15:41:21.593Z,10.24
2023-03-21T15:43:53.666Z,10.17
2023-03-21T15:46:32.613Z,10.12
2023-03-21T15:49:17.025Z,10.04
2023-03-21T15:51:43.452Z,10.02
2023-03-21T15:54:27.183Z,9.97
2023-03-21T15:57:09.454Z,9.92
2023-03-21T15:59:38.962Z,9.82
2023-03-21T16:02:05.799Z,9.76
2023-03-21T16:04:32.540Z,9.80
2023-03-21T16:07:01.492Z,9.73
2023-03-21T16:09:28.637Z,9.76
2023-03-21T16:11:56.959Z,9.82
2023-03-21T16:14:24.592Z,9.79
2023-03-21T16:16:51.306Z,9.76
2023-03-21T16:19:17.811Z,9.69
2023-03-21T16:21:44.376Z,9.65
2023-03-21T16:24:12.448Z,9.62
2023-03-21T16:26:45.168Z,9.60
2023-03-21T16:29:13.455Z,9.52
2023-03-21T16:31:40.385Z,9.51
2023-03-21T16:34:07.231Z,9.44
2023-03-21T16:36:36.761Z,9.34
2023-03-21T16:39:11.785Z,9.31
2023-03-21T16:41:38.287Z,9.29
2023-03-21T16:44:04.742Z,9.24
2023-03-21T16:46:31.512Z,9.27
2023-03-21T16:48:58.610Z,9.35
2023-03-21T16:51:29.384Z,9.41
2023-03-21T16:53:56.343Z,9.48
2023-03-21T16:56:24.932Z,9.52
2023-03-21T16:58:53.618Z,9.50
2023-03-21T17:01:20.752Z,9.51
2023-03-21T17:03:48.443Z,9.36
2023-03-21T17:06:16.107Z,9.31
2023-03-21T17:08:43.082Z,9.22
2023-03-21T17:11:16.324Z,9.25
2023-03-21T17:13:49.919Z,9.18
2023-03-21T17:16:17.561Z,9.12
2023-03-21T17:18:44.100Z,9.10
2023-03-21T17:21:16.069Z,9.10
2023-03-21T17:23:42.871Z,9.11
2023-03-21T17:26:10.741Z,9.15
2023-03-21T17:28:37.676Z,9.15
2023-03-21T17:31:04.723Z,9.19
2023-03-21T17:33:31.208Z,9.22
2023-03-21T17:35:57.725Z,9.25
2023-03-21T17:38:24.434Z,9.21
2023-03-21T17:40:51.068Z,9.11
2023-03-21T17:43:19.187Z,8.95
2023-03-21T17:45:45.685Z,8.88
2023-03-21T17:48:12.153Z,8.82
2023-03-21T17:50:39.582Z,8.84
2023-03-21T17:53:06.553Z,8.85
2023-03-21T17:55:33.942Z,8.78
2023-03-21T17:58:00.380Z,8.76
2023-03-21T18:00:28.183Z,8.76
2023-03-21T18:02:54.635Z,8.78
2023-03-21T18:05:24.855Z,8.78
2023-03-21T18:08:09.649Z,8.79
2023-03-21T18:10:37.426Z,8.73
2023-03-21T18:13:04.083Z,8.72
2023-03-21T18:15:31.172Z,8.64
2023-03-21T18:17:57.960Z,8.68
2023-03-21T18:20:44.601Z,8.76
2023-03-21T18:23:14.307Z,8.82
2023-03-21T18:25:41.812Z,8.88
2023-03-21T18:28:11.944Z,8.89
2023-03-21T18:30:56.841Z,8.89
2023-03-21T18:33:27.394Z,8.88
2023-03-21T18:35:59.017Z,8.85
2023-03-21T18:38:26.451Z,8.86
2023-03-21T18:40:52.916Z,8.87
2023-03-21T18:46:06.021Z,8.86
2023-03-21T18:48:34.130Z,8.85
2023-03-21T18:51:00.999Z,8.80
2023-03-21T18:53:27.790Z,8.80
2023-03-21T18:55:54.375Z,8.79
2023-03-21T18:58:21.371Z,8.76
2023-03-21T19:00:49.515Z,8.74
2023-03-21T19:03:26.953Z,8.70
2023-03-21T19:05:59.585Z,8.65
2023-03-21T19:08:26.076Z,8.58
2023-03-21T19:10:53.128Z,8.51
2023-03-21T19:13:19.704Z,8.50
2023-03-21T19:15:49.386Z,8.47
2023-03-21T19:18:37.723Z,8.44
2023-03-21T19:21:03.580Z,8.42
2023-03-21T19:23:40.971Z,8.41
2023-03-21T19:26:16.838Z,8.40
2023-03-21T19:28:43.284Z,8.40
2023-03-21T19:31:09.946Z,8.38
2023-03-21T19:33:36.867Z,8.33
2023-03-21T19:36:17.598Z,8.28
2023-03-21T19:38:47.562Z,8.26
2023-03-21T19:41:14.045Z,8.22
2023-03-21T19:43:45.449Z,8.20
2023-03-21T19:46:20.015Z,8.16
2023-03-21T19:48:46.633Z,8.13
2023-03-21T19:51:27.674Z,8.11
2023-03-21T19:53:55.546Z,8.04
2023-03-21T19:56:26.199Z,7.95
2023-03-21T19:58:53.512Z,7.97
2023-03-21T20:01:20.131Z,7.97
2023-03-21T20:03:47.278Z,7.95
2023-03-21T20:06:13.803Z,7.94
2023-03-21T20:09:13.726Z,7.90
2023-03-21T20:11:27.297Z,7.87
2023-03-21T20:13:53.822Z,7.86
2023-03-21T20:16:20.715Z,7.87
2023-03-21T20:18:47.504Z,7.85
2023-03-21T20:21:17.950Z,7.83
2023-03-21T20:23:49.288Z,7.78
2023-03-21T20:26:16.464Z,7.78
2023-03-21T20:28:56.133Z,7.76
2023-03-21T20:31:26.256Z,7.69
2023-03-21T20:33:53.204Z,7.67
2023-03-21T20:36:38.558Z,7.66
2023-03-21T20:39:06.674Z,7.65
2023-03-21T20:41:33.144Z,7.64
2023-03-21T20:46:48.075Z,7.58
2023-03-21T20:49:15.445Z,7.58
2023-03-21T20:54:29.861Z,7.59
2023-03-21T20:56:57.243Z,7.59
2023-03-21T20:59:27.752Z,7.54
2023-03-21T21:01:55.750Z,7.53
2023-03-21T21:04:23.128Z,7.53
2023-03-21T21:06:53.858Z,7.52
2023-03-21T21:09:20.898Z,7.51
2023-03-21T21:12:06.150Z,7.47
2023-03-21T21:14:35.791Z,7.45
2023-03-21T21:17:15.504Z,7.44
2023-03-21T21:19:52.349Z,7.46
2023-03-21T21:22:18.962Z,7.42
2023-03-21T21:24:45.416Z,7.40
2023-03-21T21:27:12.066Z,7.35
2023-03-21T21:29:38.583Z,7.34
2023-03-21T21:32:05.382Z,7.33
2023-03-21T21:34:32.365Z,7.34
2023-03-21T21:36:58.922Z,7.29
2023-03-21T21:39:26.569Z,7.27
2023-03-21T21:41:53.419Z,7.21
2023-03-21T21:44:19.952Z,7.17
2023-03-21T21:46:46.481Z,7.15
2023-03-21T21:49:13.019Z,7.15
2023-03-21T21:51:41.306Z,7.15
2023-03-21T21:54:07.747Z,7.15
2023-03-21T21:56:35.945Z,7.13
2023-03-21T21:59:04.058Z,7.12
2023-03-21T22:01:31.152Z,7.09
2023-03-21T22:04:06.159Z,7.08
2023-03-21T22:06:33.505Z,7.09
2023-03-21T22:08:59.985Z,7.10
2023-03-21T22:11:26.474Z,7.10
2023-03-21T22:13:52.926Z,7.09
2023-03-21T22:16:19.461Z,7.11
2023-03-21T22:18:45.934Z,7.10
2023-03-21T22:21:12.454Z,7.07
2023-03-21T22:23:41.461Z,7.05
2023-03-21T22:26:08.395Z,7.07
2023-03-21T22:28:34.922Z,7.04
2023-03-21T22:31:08.528Z,7.04
2023-03-21T22:33:35.912Z,7.05
2023-03-21T22:36:02.378Z,7.05
2023-03-21T22:38:28.939Z,7.05
2023-03-21T22:40:59.418Z,7.04
2023-03-21T22:43:26.194Z,7.01
2023-03-21T22:45:53.071Z,7.04
2023-03-21T22:48:20.012Z,7.06
2023-03-21T22:50:46.540Z,7.06
2023-03-21T22:53:13.326Z,7.05
2023-03-21T22:55:40.473Z,7.03
2023-03-21T22:58:07.294Z,7.02
2023-03-21T23:00:33.788Z,7.05
2023-03-21T23:03:00.364Z,7.05
2023-03-21T23:05:27.026Z,7.07
2023-03-21T23:07:53.766Z,7.10
2023-03-21T23:10:20.491Z,7.14
2023-03-21T23:12:46.988Z,7.15
2023-03-21T23:15:13.441Z,7.16
2023-03-21T23:17:39.896Z,7.14
2023-03-21T23:20:07.895Z,7.16
2023-03-21T23:22:34.937Z,7.17
2023-03-21T23:25:01.574Z,7.16
2023-03-21T23:27:28.300Z,7.16
2023-03-21T23:29:56.645Z,7.12
2023-03-21T23:32:23.347Z,7.11
2023-03-21T23:34:49.788Z,7.10
2023-03-21T23:37:16.247Z,7.09
2023-03-21T23:39:45.214Z,7.06
2023-03-21T23:42:11.785Z,7.03
2023-03-21T23:44:38.287Z,7.00
2023-03-21T23:47:05.059Z,6.99
2023-03-21T23:49:33.766Z,6.99
2023-03-21T23:52:00.321Z,6.99
2023-03-21T23:54:26.927Z,6.97
2023-03-21T23:56:53.384Z,6.96
2023-03-21T23:59:19.851Z,6.95
